Time;durP1;ratioP1;P1;durP2;ratioP2;P2;SDS_P1;SDS_P2;PMS_P1;PMS_P2;Temp;Humidity;BMP_temperature;BMP_pressure;BME280_temperature;BME280_humidity;BME280_pressure;Samples;Min_cycle;Max_cycle;Signal;HPM_P1;HPM_P2
2023/08/02 00:01:05;;;;;;;6.88;1.35;;;19.10;99.90;;;;;;5038584;28;20029;-79
2023/08/02 00:03:31;;;;;;;8.85;1.63;;;19.10;99.90;;;;;;5052825;28;20025;-80
2023/08/02 00:05:58;;;;;;;7.95;1.67;;;19.20;99.90;;;;;;5034528;28;20480;-80
2023/08/02 00:08:25;;;;;;;2.88;0.82;;;19.20;99.90;;;;;;5052181;28;20445;-79
2023/08/02 00:10:51;;;;;;;5.47;1.13;;;19.20;99.90;;;;;;5052463;28;20096;-79
2023/08/02 00:13:17;;;;;;;3.47;1.15;;;19.20;99.90;;;;;;5054411;28;20133;-80
2023/08/02 00:15:43;;;;;;;6.50;1.33;;;19.30;99.90;;;;;;5056137;28;20119;-80
2023/08/02 00:18:09;;;;;;;5.75;1.40;;;19.20;99.90;;;;;;5056354;28;20021;-80
2023/08/02 00:20:36;;;;;;;4.43;1.30;;;19.30;99.90;;;;;;5054807;28;20025;-80
2023/08/02 00:23:02;;;;;;;6.45;1.10;;;19.30;99.90;;;;;;5056097;28;20033;-80
2023/08/02 00:25:28;;;;;;;2.08;0.90;;;19.30;99.90;;;;;;5051526;28;20103;-79
2023/08/02 00:27:54;;;;;;;3.78;1.00;;;19.30;99.90;;;;;;5036077;28;20339;-79
2023/08/02 00:30:20;;;;;;;3.97;1.08;;;19.30;99.90;;;;;;5036151;28;20075;-80
2023/08/02 00:32:47;;;;;;;4.05;1.42;;;19.40;99.90;;;;;;5035808;28;20022;-80
2023/08/02 00:35:13;;;;;;;4.38;1.00;;;19.40;99.90;;;;;;5036071;28;20025;-80
2023/08/02 00:37:41;;;;;;;2.22;0.80;;;19.40;99.90;;;;;;5050778;28;20516;-80
2023/08/02 00:40:07;;;;;;;4.75;0.90;;;19.50;99.90;;;;;;5036265;28;20144;-81
2023/08/02 00:42:33;;;;;;;5.63;0.95;;;19.50;99.90;;;;;;5035794;28;20037;-79
2023/08/02 00:44:58;;;;;;;5.80;1.13;;;19.50;99.90;;;;;;5035860;28;20038;-79
2023/08/02 00:47:27;;;;;;;6.60;1.50;;;19.50;99.90;;;;;;5034404;28;20025;-78
2023/08/02 00:49:53;;;;;;;3.92;1.00;;;19.50;99.90;;;;;;5035379;28;20022;-80
2023/08/02 00:52:19;;;;;;;2.42;0.95;;;19.40;99.90;;;;;;5035659;28;20111;-80
2023/08/02 00:54:47;;;;;;;2.70;0.68;;;19.40;99.90;;;;;;5035547;28;20049;-82
2023/08/02 00:57:14;;;;;;;6.10;1.15;;;19.50;99.90;;;;;;5034460;28;20117;-79
2023/08/02 00:59:42;;;;;;;5.15;1.20;;;19.50;99.90;;;;;;5034491;28;20112;-79
2023/08/02 01:02:09;;;;;;;3.60;1.05;;;19.50;99.90;;;;;;5035175;28;20022;-80
2023/08/02 01:04:36;;;;;;;5.47;1.40;;;19.50;99.90;;;;;;5035663;28;20065;-80
2023/08/02 01:07:24;;;;;;;3.78;0.90;;;19.50;99.90;;;;;;5034981;28;20121;-77
2023/08/02 01:10:14;;;;;;;2.53;0.77;;;19.50;99.90;;;;;;5050725;28;20079;-80
2023/08/02 01:12:44;;;;;;;3.42;1.10;;;19.50;99.90;;;;;;5035081;28;20025;-78
2023/08/02 01:15:14;;;;;;;3.55;0.77;;;19.50;99.90;;;;;;5035164;28;20025;-80
2023/08/02 01:17:41;;;;;;;2.58;1.00;;;19.50;99.90;;;;;;5034967;28;20017;-80
2023/08/02 01:20:07;;;;;;;13.35;1.40;;;19.50;99.90;;;;;;5035534;28;20375;-81
2023/08/02 01:22:33;;;;;;;4.32;1.02;;;19.50;99.90;;;;;;5052398;28;20031;-81
2023/08/02 01:25:00;;;;;;;5.97;1.27;;;19.50;99.90;;;;;;5053591;28;20049;-82
2023/08/02 01:27:41;;;;;;;7.65;1.58;;;19.50;99.90;;;;;;5054904;28;20040;-81
2023/08/02 01:30:11;;;;;;;6.93;1.50;;;19.40;99.90;;;;;;5054766;28;20107;-80
2023/08/02 01:32:37;;;;;;;5.10;1.60;;;19.40;99.90;;;;;;5054958;28;20055;-81
2023/08/02 01:35:04;;;;;;;5.38;1.65;;;19.40;99.90;;;;;;5053637;28;20418;-80
2023/08/02 01:37:32;;;;;;;5.28;1.30;;;19.40;99.90;;;;;;5054299;28;20025;-80
2023/08/02 01:39:58;;;;;;;5.68;1.08;;;19.40;99.90;;;;;;5054507;28;20048;-81
2023/08/02 01:42:24;;;;;;;5.03;1.10;;;19.40;99.90;;;;;;5056252;28;20032;-81
2023/08/02 01:44:49;;;;;;;5.82;1.50;;;19.40;99.90;;;;;;5054216;28;20095;-81
2023/08/02 01:47:17;;;;;;;6.03;1.50;;;19.40;99.90;;;;;;5056457;28;20384;-82
2023/08/02 01:49:43;;;;;;;8.02;1.50;;;19.40;99.90;;;;;;5054807;28;20064;-82
2023/08/02 01:52:09;;;;;;;3.50;0.95;;;19.30;99.90;;;;;;5054203;28;20422;-82
2023/08/02 01:54:35;;;;;;;4.00;1.23;;;19.30;99.90;;;;;;5053003;28;20036;-81
2023/08/02 01:57:00;;;;;;;5.72;1.70;;;19.30;99.90;;;;;;5053189;28;20457;-82
2023/08/02 01:59:26;;;;;;;7.03;2.00;;;19.30;99.90;;;;;;5054117;28;20036;-80
2023/08/02 02:01:52;;;;;;;5.72;1.40;;;19.20;99.90;;;;;;5052942;28;20021;-80
2023/08/02 02:04:17;;;;;;;3.10;0.88;;;19.20;99.90;;;;;;5053243;28;20449;-80
2023/08/02 02:06:43;;;;;;;14.15;1.45;;;19.20;99.90;;;;;;5052492;28;20112;-79
2023/08/02 02:09:08;;;;;;;4.05;1.20;;;19.20;99.90;;;;;;5053612;28;20082;-80
2023/08/02 02:11:34;;;;;;;4.47;1.23;;;19.20;99.90;;;;;;5053738;28;20151;-79
2023/08/02 02:13:59;;;;;;;7.78;1.58;;;19.20;99.90;;;;;;5052257;28;20033;-79
2023/08/02 02:16:25;;;;;;;3.33;1.38;;;19.20;99.90;;;;;;5052546;28;20025;-80
2023/08/02 02:18:51;;;;;;;4.30;1.40;;;19.10;99.90;;;;;;5053935;28;20457;-79
2023/08/02 02:21:16;;;;;;;6.22;1.70;;;19.00;99.90;;;;;;5052321;28;20036;-79
2023/08/02 02:23:42;;;;;;;6.15;1.77;;;19.00;99.90;;;;;;5052427;28;20025;-80
2023/08/02 02:26:08;;;;;;;4.55;1.40;;;19.00;99.90;;;;;;5052330;28;20070;-80
2023/08/02 02:28:34;;;;;;;7.25;1.52;;;19.00;99.90;;;;;;5053522;28;20053;-79
2023/08/02 02:30:59;;;;;;;6.78;1.70;;;18.90;99.90;;;;;;5052361;28;20025;-78
2023/08/02 02:33:25;;;;;;;4.43;1.27;;;18.90;99.90;;;;;;5053549;28;20112;-78
2023/08/02 02:35:50;;;;;;;3.55;1.30;;;18.90;99.90;;;;;;5053323;28;20029;-78
2023/08/02 02:38:16;;;;;;;2.97;1.05;;;18.90;99.90;;;;;;5053056;28;20025;-78
2023/08/02 02:40:42;;;;;;;2.33;1.05;;;18.90;99.90;;;;;;5052976;28;20461;-78
2023/08/02 02:43:08;;;;;;;3.28;1.30;;;18.90;99.90;;;;;;5052485;28;20036;-78
2023/08/02 02:45:34;;;;;;;4.97;1.35;;;19.00;99.90;;;;;;5051735;28;20033;-80
2023/08/02 02:47:59;;;;;;;4.10;1.30;;;19.00;99.90;;;;;;5033314;28;20037;-79
2023/08/02 02:50:25;;;;;;;5.15;1.60;;;19.00;99.90;;;;;;5032416;28;20373;-79
2023/08/02 02:52:51;;;;;;;4.05;1.20;;;18.90;99.90;;;;;;5031976;28;20159;-79
2023/08/02 02:55:16;;;;;;;5.38;0.98;;;18.90;99.90;;;;;;5032995;28;20104;-79
2023/08/02 02:57:42;;;;;;;3.25;1.00;;;18.90;99.90;;;;;;5032780;28;20029;-79
2023/08/02 03:00:08;;;;;;;5.30;1.05;;;18.90;99.90;;;;;;5032951;28;20025;-79
2023/08/02 03:02:34;;;;;;;3.17;0.93;;;18.90;99.90;;;;;;5033169;28;20060;-79
2023/08/02 03:05:00;;;;;;;2.75;1.00;;;18.90;99.90;;;;;;5031767;28;20069;-79
2023/08/02 03:07:25;;;;;;;3.63;1.30;;;19.00;99.90;;;;;;5031574;28;20063;-78
2023/08/02 03:09:51;;;;;;;4.05;1.20;;;19.00;99.90;;;;;;5033377;28;20079;-77
2023/08/02 03:12:17;;;;;;;3.40;1.33;;;19.00;99.90;;;;;;5032990;28;20032;-78
2023/08/02 03:14:42;;;;;;;4.82;1.40;;;19.00;99.90;;;;;;5031706;28;20030;-79
2023/08/02 03:17:08;;;;;;;3.28;1.00;;;18.90;99.90;;;;;;5032866;28;20108;-81
2023/08/02 03:19:34;;;;;;;2.53;0.90;;;18.90;99.90;;;;;;5033114;28;20429;-81
2023/08/02 03:21:59;;;;;;;3.67;1.02;;;18.90;99.90;;;;;;5031600;28;20029;-79
2023/08/02 03:24:25;;;;;;;4.50;1.30;;;19.00;99.90;;;;;;5032401;28;20148;-79
2023/08/02 03:26:51;;;;;;;4.75;1.00;;;18.90;99.90;;;;;;5033101;28;20412;-79
2023/08/02 03:29:17;;;;;;;4.00;1.13;;;18.90;99.90;;;;;;5032908;28;20454;-78
2023/08/02 03:31:43;;;;;;;2.85;1.33;;;18.90;99.90;;;;;;5031848;28;20026;-79
2023/08/02 03:34:09;;;;;;;3.20;0.98;;;18.90;99.90;;;;;;5032908;28;20030;-79
2023/08/02 03:36:34;;;;;;;3.53;1.17;;;18.90;99.90;;;;;;5032429;28;20330;-79
2023/08/02 03:39:00;;;;;;;3.70;1.10;;;18.90;99.90;;;;;;5032488;28;20490;-79
2023/08/02 03:41:26;;;;;;;3.08;1.17;;;18.90;99.90;;;;;;5031942;28;20036;-80
2023/08/02 03:43:52;;;;;;;5.28;1.30;;;18.80;99.90;;;;;;5032960;28;20040;-81
2023/08/02 03:46:17;;;;;;;3.97;1.42;;;18.80;99.90;;;;;;5031304;28;20108;-80
2023/08/02 03:48:43;;;;;;;3.20;1.55;;;18.90;99.90;;;;;;5036089;28;20025;-79
2023/08/02 03:51:09;;;;;;;4.55;1.00;;;18.80;99.90;;;;;;5037364;28;20029;-80
2023/08/02 03:53:34;;;;;;;2.42;1.30;;;18.80;99.90;;;;;;5037037;28;20029;-80
2023/08/02 03:56:00;;;;;;;3.88;1.40;;;18.80;99.90;;;;;;5036267;28;20025;-81
2023/08/02 03:58:26;;;;;;;4.30;1.17;;;18.80;99.90;;;;;;5044101;28;20028;-80
2023/08/02 04:00:51;;;;;;;3.95;1.80;;;18.80;99.90;;;;;;5056277;28;20029;-81
2023/08/02 04:03:17;;;;;;;5.43;1.55;;;18.70;99.90;;;;;;5056714;28;20032;-81
2023/08/02 04:05:43;;;;;;;5.70;1.58;;;18.60;99.90;;;;;;5056429;28;20085;-81
2023/08/02 04:08:09;;;;;;;6.28;1.38;;;18.70;99.90;;;;;;5055660;28;20029;-81
2023/08/02 04:10:37;;;;;;;4.88;2.17;;;18.60;99.90;;;;;;5055000;28;20306;-80
2023/08/02 04:13:03;;;;;;;5.35;1.63;;;18.50;99.90;;;;;;5056360;28;20029;-79
2023/08/02 04:15:31;;;;;;;3.03;1.00;;;18.50;99.90;;;;;;5056539;28;20044;-81
2023/08/02 04:17:57;;;;;;;7.57;3.45;;;18.40;99.90;;;;;;5056203;28;20037;-81
2023/08/02 04:20:22;;;;;;;7.30;1.30;;;18.40;99.90;;;;;;5052116;28;20048;-81
2023/08/02 04:22:49;;;;;;;3.42;1.10;;;18.40;99.90;;;;;;5036203;28;20045;-80
2023/08/02 04:25:15;;;;;;;6.32;1.77;;;18.40;99.90;;;;;;5034791;28;20069;-80
2023/08/02 04:27:41;;;;;;;5.13;1.80;;;18.40;99.90;;;;;;5036237;28;20462;-81
2023/08/02 04:30:07;;;;;;;5.97;2.10;;;18.50;99.90;;;;;;5035867;28;20091;-81
2023/08/02 04:32:33;;;;;;;3.50;1.48;;;18.40;99.90;;;;;;5051607;28;20030;-81
2023/08/02 04:34:59;;;;;;;3.03;1.08;;;18.40;99.90;;;;;;5035736;28;20356;-82
2023/08/02 04:37:24;;;;;;;5.70;1.42;;;18.50;99.90;;;;;;5034309;28;20351;-82
2023/08/02 04:39:50;;;;;;;4.30;1.58;;;18.50;99.90;;;;;;5035568;28;20033;-82
2023/08/02 04:42:17;;;;;;;2.90;1.65;;;18.50;99.90;;;;;;5034184;28;20051;-82
2023/08/02 04:44:42;;;;;;;7.68;2.22;;;18.50;99.90;;;;;;5035846;28;20504;-82
2023/08/02 04:47:08;;;;;;;3.28;1.23;;;18.50;99.90;;;;;;5036121;28;20057;-81
2023/08/02 04:49:35;;;;;;;5.55;1.50;;;18.50;99.90;;;;;;5035883;28;20044;-80
2023/08/02 04:52:01;;;;;;;3.65;1.38;;;18.50;99.90;;;;;;5035668;28;20034;-83
2023/08/02 04:54:27;;;;;;;3.72;1.73;;;18.50;99.90;;;;;;5035721;28;20357;-81
2023/08/02 04:56:52;;;;;;;5.75;2.20;;;18.60;99.90;;;;;;5035030;28;20481;-81
2023/08/02 04:59:18;;;;;;;7.03;2.17;;;18.60;99.90;;;;;;5032462;28;20026;-80
2023/08/02 05:01:43;;;;;;;3.97;1.42;;;18.50;99.90;;;;;;5035540;28;20084;-80
2023/08/02 05:04:09;;;;;;;5.78;1.58;;;18.50;99.90;;;;;;5034806;28;20426;-81
2023/08/02 05:06:35;;;;;;;4.38;1.50;;;18.50;99.90;;;;;;5035337;28;20477;-82
2023/08/02 05:09:04;;;;;;;4.53;1.70;;;18.40;99.90;;;;;;5053529;28;20025;-82
2023/08/02 05:11:30;;;;;;;7.28;1.63;;;18.40;99.90;;;;;;5055109;28;20025;-80
2023/08/02 05:13:56;;;;;;;3.33;1.30;;;18.30;99.90;;;;;;5055040;28;20021;-80
2023/08/02 05:16:22;;;;;;;3.33;1.25;;;18.20;99.90;;;;;;5053868;28;20040;-80
2023/08/02 05:18:47;;;;;;;4.38;1.42;;;18.30;99.90;;;;;;5053918;28;20032;-80
2023/08/02 05:21:14;;;;;;;4.80;1.88;;;18.30;99.90;;;;;;5053735;28;20616;-79
2023/08/02 05:23:43;;;;;;;2.58;1.40;;;18.20;99.90;;;;;;5053850;28;20060;-81
2023/08/02 05:26:09;;;;;;;5.40;1.63;;;18.20;99.90;;;;;;5053531;28;20049;-80
2023/08/02 05:28:35;;;;;;;7.20;1.80;;;18.20;99.90;;;;;;5054811;28;20232;-78
2023/08/02 05:31:02;;;;;;;5.25;2.00;;;18.20;99.90;;;;;;5054827;28;20101;-78
2023/08/02 05:33:28;;;;;;;3.85;1.83;;;18.20;99.90;;;;;;5054895;28;20104;-78
2023/08/02 05:35:53;;;;;;;5.68;2.08;;;18.10;99.90;;;;;;5054351;28;20550;-79
2023/08/02 05:38:20;;;;;;;5.03;1.50;;;18.20;99.90;;;;;;5053986;28;20136;-79
2023/08/02 05:40:45;;;;;;;6.68;1.63;;;18.20;99.90;;;;;;5054540;28;20037;-79
2023/08/02 05:43:11;;;;;;;5.50;1.45;;;18.10;99.90;;;;;;5053169;28;20029;-80
2023/08/02 05:45:37;;;;;;;4.45;1.35;;;18.10;99.90;;;;;;5053342;28;20048;-79
2023/08/02 05:48:03;;;;;;;3.88;1.55;;;18.10;99.90;;;;;;5053007;28;20381;-80
2023/08/02 05:50:29;;;;;;;4.20;1.17;;;18.10;99.90;;;;;;5053178;28;20041;-80
2023/08/02 05:52:54;;;;;;;4.70;1.30;;;18.10;99.90;;;;;;5054046;28;20033;-79
2023/08/02 05:55:21;;;;;;;7.35;2.20;;;18.20;99.90;;;;;;5052808;28;20053;-80
2023/08/02 05:57:48;;;;;;;6.28;1.77;;;18.10;99.90;;;;;;5054159;28;20086;-80
2023/08/02 06:00:15;;;;;;;6.80;2.08;;;18.10;99.90;;;;;;5054731;28;20083;-79
2023/08/02 06:02:40;;;;;;;7.70;1.38;;;18.00;99.90;;;;;;5056150;28;20381;-80
2023/08/02 06:05:06;;;;;;;5.82;1.58;;;18.10;99.90;;;;;;5057642;28;20037;-81
2023/08/02 06:07:32;;;;;;;4.18;1.60;;;18.00;99.90;;;;;;5057413;28;20424;-79
2023/08/02 06:09:58;;;;;;;4.65;1.70;;;18.00;99.90;;;;;;5055830;28;20091;-80
2023/08/02 06:12:23;;;;;;;6.38;1.80;;;18.00;99.90;;;;;;5053937;28;20082;-77
2023/08/02 06:14:49;;;;;;;5.07;1.67;;;17.90;99.90;;;;;;5055638;28;20033;-79
2023/08/02 06:17:15;;;;;;;5.40;1.80;;;17.90;99.90;;;;;;5054603;28;20029;-79
2023/08/02 06:19:40;;;;;;;4.53;1.70;;;17.90;99.90;;;;;;5046262;28;20029;-79
2023/08/02 06:22:07;;;;;;;4.82;1.88;;;17.90;99.90;;;;;;5042904;28;20025;-81
2023/08/02 06:24:33;;;;;;;4.30;1.95;;;18.00;99.90;;;;;;5044228;28;20047;-80
2023/08/02 06:26:58;;;;;;;3.28;1.70;;;17.90;99.90;;;;;;5043096;28;20029;-80
2023/08/02 06:29:24;;;;;;;6.43;1.80;;;18.00;99.90;;;;;;5041364;28;20484;-80
2023/08/02 06:31:50;;;;;;;4.45;2.00;;;17.90;99.90;;;;;;5044133;28;20029;-80
2023/08/02 06:34:15;;;;;;;5.72;2.20;;;18.00;99.90;;;;;;5024205;28;20033;-79
2023/08/02 06:36:41;;;;;;;4.43;2.03;;;18.00;99.90;;;;;;5043089;28;20029;-79
2023/08/02 06:39:07;;;;;;;8.32;2.50;;;17.90;99.90;;;;;;5041814;28;20029;-81
2023/08/02 06:41:32;;;;;;;3.28;1.58;;;17.90;99.90;;;;;;5041784;28;20034;-79
2023/08/02 06:43:58;;;;;;;6.47;2.33;;;17.90;99.90;;;;;;5041872;28;20029;-79
2023/08/02 06:46:23;;;;;;;5.70;2.13;;;17.70;99.90;;;;;;5042019;28;20026;-80
2023/08/02 06:48:49;;;;;;;5.70;2.17;;;17.70;99.90;;;;;;5040509;28;20351;-78
2023/08/02 06:51:15;;;;;;;7.15;2.50;;;17.70;99.90;;;;;;5049119;28;20071;-78
2023/08/02 06:53:40;;;;;;;6.22;2.53;;;17.70;99.90;;;;;;5035284;28;20390;-80
2023/08/02 06:56:13;;;;;;;6.93;2.17;;;17.60;99.90;;;;;;5033434;28;20057;-79
2023/08/02 06:58:40;;;;;;;5.07;1.95;;;17.50;99.90;;;;;;5031962;28;20030;-78
2023/08/02 07:01:17;;;;;;;5.85;2.30;;;17.50;99.90;;;;;;5033206;28;20034;-79
2023/08/02 07:03:43;;;;;;;5.32;2.53;;;17.50;99.90;;;;;;5033106;28;20032;-78
2023/08/02 07:06:19;;;;;;;5.85;2.53;;;17.40;99.90;;;;;;5052600;28;20432;-78
2023/08/02 07:08:45;;;;;;;8.32;2.75;;;17.40;99.90;;;;;;5052280;28;20108;-77
2023/08/02 07:11:18;;;;;;;3.88;2.38;;;17.40;99.90;;;;;;5052945;28;20112;-78
2023/08/02 07:13:45;;;;;;;4.35;2.40;;;17.40;99.90;;;;;;5052909;28;20033;-79
2023/08/02 07:16:11;;;;;;;7.13;1.98;;;17.40;99.90;;;;;;5052879;28;20120;-79
2023/08/02 07:18:37;;;;;;;5.07;2.50;;;17.40;99.90;;;;;;5051540;28;20108;-80
2023/08/02 07:21:05;;;;;;;5.25;2.25;;;17.50;99.90;;;;;;5052081;28;20060;-80
2023/08/02 07:23:30;;;;;;;5.53;2.60;;;17.50;99.90;;;;;;5045327;28;20036;-81
2023/08/02 07:25:57;;;;;;;3.22;1.95;;;17.50;99.90;;;;;;5028738;28;20057;-80
2023/08/02 07:28:22;;;;;;;4.85;2.30;;;17.50;99.90;;;;;;5052428;28;20036;-81
2023/08/02 07:30:48;;;;;;;6.63;2.03;;;17.50;99.90;;;;;;5051313;28;20039;-81
2023/08/02 07:33:14;;;;;;;3.17;1.48;;;17.50;99.90;;;;;;5051435;28;20037;-82
2023/08/02 07:35:39;;;;;;;4.63;2.20;;;17.50;99.90;;;;;;5051510;28;20037;-82
2023/08/02 07:38:05;;;;;;;5.22;2.72;;;17.50;99.90;;;;;;5050918;28;20041;-81
2023/08/02 07:40:31;;;;;;;2.63;1.80;;;17.50;99.90;;;;;;5052572;28;20033;-82
2023/08/02 07:42:56;;;;;;;4.18;2.00;;;17.50;99.90;;;;;;5052234;28;20029;-82
2023/08/02 07:45:22;;;;;;;4.68;2.15;;;17.50;99.90;;;;;;5052594;28;20214;-81
2023/08/02 07:47:48;;;;;;;2.53;1.55;;;17.50;99.90;;;;;;5051516;28;20041;-81
2023/08/02 07:50:13;;;;;;;2.85;1.92;;;17.60;99.90;;;;;;5051099;28;20025;-82
2023/08/02 07:52:39;;;;;;;2.70;1.52;;;17.60;99.90;;;;;;5051145;28;20108;-82
2023/08/02 07:55:05;;;;;;;5.50;2.00;;;17.70;99.90;;;;;;5051412;28;20049;-82
2023/08/02 07:57:33;;;;;;;5.07;1.85;;;17.70;99.90;;;;;;5051093;28;20491;-83
2023/08/02 07:59:59;;;;;;;2.28;1.65;;;17.70;99.90;;;;;;5052736;28;20060;-83
2023/08/02 08:02:25;;;;;;;3.40;1.67;;;17.70;99.90;;;;;;5052950;28;20029;-82
2023/08/02 08:04:51;;;;;;;7.78;1.75;;;17.70;99.90;;;;;;5052286;28;20029;-81
2023/08/02 08:07:17;;;;;;;3.47;1.45;;;17.80;99.90;;;;;;5052465;28;20473;-82
2023/08/02 08:09:43;;;;;;;5.15;1.40;;;17.80;99.90;;;;;;5052171;28;20109;-81
2023/08/02 08:12:09;;;;;;;3.05;1.20;;;17.90;99.90;;;;;;5053182;28;20017;-81
2023/08/02 08:14:35;;;;;;;3.55;1.63;;;17.80;99.90;;;;;;5063594;28;20248;-81
2023/08/02 08:17:01;;;;;;;2.60;1.33;;;17.80;99.90;;;;;;5064246;28;20053;-81
2023/08/02 08:19:29;;;;;;;2.85;1.25;;;17.90;99.90;;;;;;5062888;28;20060;-82
2023/08/02 08:21:55;;;;;;;1.92;0.82;;;17.80;99.90;;;;;;5053265;28;20029;-82
2023/08/02 08:24:20;;;;;;;2.35;1.20;;;17.80;99.90;;;;;;5052309;28;20032;-81
2023/08/02 08:26:46;;;;;;;2.63;0.75;;;17.70;99.90;;;;;;5052427;28;20037;-81
2023/08/02 08:29:13;;;;;;;1.88;0.95;;;17.70;99.90;;;;;;5051142;28;20462;-82
2023/08/02 08:31:38;;;;;;;2.58;0.90;;;17.80;99.90;;;;;;5051103;28;20028;-83
2023/08/02 08:34:04;;;;;;;1.90;0.95;;;17.80;99.90;;;;;;5052347;28;20104;-82
2023/08/02 08:36:30;;;;;;;1.77;0.65;;;17.90;99.90;;;;;;5056068;28;20359;-81
2023/08/02 08:38:59;;;;;;;2.10;0.57;;;17.80;99.90;;;;;;5057691;28;20032;-76
2023/08/02 08:41:24;;;;;;;1.50;0.40;;;17.80;99.90;;;;;;5058432;28;20576;-77
2023/08/02 08:43:50;;;;;;;1.15;0.52;;;17.70;99.90;;;;;;5055906;28;20211;-79
2023/08/02 08:46:17;;;;;;;0.65;0.30;;;17.80;99.90;;;;;;5056873;28;20029;-79
2023/08/02 08:48:43;;;;;;;1.48;0.50;;;17.80;99.90;;;;;;5055303;28;20032;-76
2023/08/02 08:51:10;;;;;;;1.10;0.50;;;17.80;99.90;;;;;;5055088;28;20035;-78
2023/08/02 08:53:39;;;;;;;0.80;0.40;;;17.70;99.90;;;;;;5058617;28;20033;-78
2023/08/02 08:56:05;;;;;;;0.75;0.50;;;17.80;99.90;;;;;;5058131;28;20064;-78
2023/08/02 08:58:35;;;;;;;0.68;0.30;;;17.90;99.90;;;;;;5058797;28;20432;-78
2023/08/02 09:01:04;;;;;;;0.90;0.45;;;17.90;99.90;;;;;;5055528;28;20068;-79
2023/08/02 09:03:30;;;;;;;0.70;0.30;;;18.00;99.90;;;;;;5055340;28;20099;-82
2023/08/02 09:06:00;;;;;;;0.80;0.40;;;18.00;99.90;;;;;;5053868;28;20040;-79
2023/08/02 09:08:26;;;;;;;3.33;0.80;;;18.00;99.90;;;;;;5053153;28;20068;-80
2023/08/02 09:10:53;;;;;;;1.92;0.40;;;18.10;99.90;;;;;;5055343;28;20045;-79
2023/08/02 09:13:22;;;;;;;3.20;0.43;;;18.10;99.90;;;;;;5055259;28;20036;-77
2023/08/02 09:16:08;;;;;;;3.30;0.60;;;18.10;99.90;;;;;;5054951;28;20025;-78
2023/08/02 09:18:35;;;;;;;0.98;0.40;;;18.10;99.90;;;;;;5046113;28;20037;-77
2023/08/02 09:21:01;;;;;;;1.20;0.40;;;18.10;99.90;;;;;;5044484;28;20033;-78
2023/08/02 09:23:27;;;;;;;1.15;0.40;;;18.20;99.90;;;;;;5035123;28;20044;-76
2023/08/02 09:26:20;;;;;;;1.20;0.47;;;18.20;99.90;;;;;;5034858;28;20057;-76
2023/08/02 09:29:06;;;;;;;0.47;0.20;;;18.30;99.90;;;;;;5035621;28;20053;-76
2023/08/02 09:31:36;;;;;;;1.38;0.22;;;18.40;99.90;;;;;;5036731;28;20037;-78
2023/08/02 09:34:03;;;;;;;1.00;0.35;;;18.40;99.90;;;;;;5035915;28;20040;-77
2023/08/02 09:36:31;;;;;;;0.98;0.30;;;18.40;99.90;;;;;;5043633;28;20504;-78
2023/08/02 09:39:10;;;;;;;1.23;0.30;;;18.50;99.90;;;;;;5017949;28;20155;-77
2023/08/02 09:41:36;;;;;;;1.23;0.28;;;18.60;99.90;;;;;;5050934;28;20060;-77
2023/08/02 09:44:02;;;;;;;2.58;0.40;;;18.60;99.90;;;;;;5055715;28;20362;-76
2023/08/02 09:46:35;;;;;;;1.48;0.50;;;18.80;99.90;;;;;;5054640;28;20044;-79
2023/08/02 09:49:01;;;;;;;;;;;18.80;99.90;;;;;;5046836;28;20029;-79
2023/08/02 09:51:40;;;;;;;1.02;0.40;;;18.80;99.90;;;;;;5044456;28;19942;-77
2023/08/02 09:54:06;;;;;;;0.80;0.47;;;18.80;99.90;;;;;;5046723;28;20033;-76
2023/08/02 09:56:34;;;;;;;4.03;0.68;;;18.80;99.90;;;;;;5034215;28;20441;-78
2023/08/02 09:59:01;;;;;;;1.00;0.40;;;18.90;99.90;;;;;;5032840;28;20051;-78
2023/08/02 10:01:29;;;;;;;1.83;0.50;;;19.00;99.90;;;;;;5033866;28;20496;-78
2023/08/02 10:04:24;;;;;;;1.83;0.40;;;19.20;99.90;;;;;;5033033;28;20192;-78
2023/08/02 10:06:55;;;;;;;2.78;0.70;;;19.30;99.90;;;;;;5031600;28;20568;-79
2023/08/02 10:09:28;;;;;;;1.52;0.60;;;19.40;99.90;;;;;;5033885;28;20481;-78
2023/08/02 10:11:56;;;;;;;1.50;0.80;;;19.50;99.90;;;;;;5034206;28;20029;-78
2023/08/02 10:14:23;;;;;;;3.58;0.65;;;19.60;99.90;;;;;;5033659;28;20033;-78
2023/08/02 10:16:51;;;;;;;1.27;0.70;;;19.60;99.90;;;;;;5034205;28;20029;-78
2023/08/02 10:19:17;;;;;;;0.93;0.52;;;19.60;99.90;;;;;;5034068;28;20105;-81
2023/08/02 10:21:44;;;;;;;1.25;0.70;;;19.70;99.90;;;;;;5034895;28;20037;-78
2023/08/02 10:24:13;;;;;;;2.42;0.93;;;19.70;99.90;;;;;;5032901;28;20037;-79
2023/08/02 10:26:40;;;;;;;0.80;0.80;;;19.80;99.90;;;;;;5036476;28;20045;-79
2023/08/02 10:29:07;;;;;;;1.63;1.00;;;19.80;99.90;;;;;;5036121;28;20453;-76
2023/08/02 10:31:33;;;;;;;1.50;1.00;;;19.90;99.90;;;;;;5037004;28;20025;-78
2023/08/02 10:33:59;;;;;;;2.35;1.20;;;20.00;99.90;;;;;;5035265;28;20337;-77
2023/08/02 10:36:25;;;;;;;1.90;0.70;;;20.20;99.90;;;;;;5034181;28;20531;-78
2023/08/02 10:38:55;;;;;;;2.38;1.05;;;20.20;99.90;;;;;;5032362;28;20068;-76
2023/08/02 10:41:25;;;;;;;3.08;0.90;;;20.20;99.90;;;;;;5033766;28;20095;-78
2023/08/02 10:43:54;;;;;;;0.90;0.90;;;20.20;99.90;;;;;;5034054;28;20117;-78
2023/08/02 10:46:22;;;;;;;1.27;0.77;;;20.30;99.90;;;;;;5033421;28;20029;-78
2023/08/02 10:48:48;;;;;;;1.15;1.05;;;20.50;99.90;;;;;;5033414;28;20057;-77
2023/08/02 10:51:33;;;;;;;1.30;0.93;;;20.60;99.90;;;;;;5033436;28;20029;-78
2023/08/02 10:54:22;;;;;;;2.45;1.35;;;20.70;99.90;;;;;;5031980;28;20022;-80
2023/08/02 10:56:54;;;;;;;1.17;1.08;;;20.70;99.90;;;;;;5033180;28;20025;-83
2023/08/02 10:59:22;;;;;;;1.75;0.80;;;20.60;99.90;;;;;;5033191;28;20025;-82
2023/08/02 11:02:07;;;;;;;2.85;0.95;;;20.70;99.90;;;;;;5033421;28;20029;-80
2023/08/02 11:04:34;;;;;;;2.22;1.08;;;20.80;99.90;;;;;;5035018;28;20034;-79
2023/08/02 11:07:16;;;;;;;2.38;1.10;;;20.90;99.90;;;;;;5033736;28;20032;-80
2023/08/02 11:09:42;;;;;;;1.30;1.00;;;21.10;99.90;;;;;;5033167;28;20029;-81
2023/08/02 11:12:16;;;;;;;1.02;0.90;;;21.30;99.90;;;;;;5031555;28;20025;-80
2023/08/02 11:14:43;;;;;;;1.33;1.10;;;21.60;99.90;;;;;;5033594;28;20040;-81
2023/08/02 11:17:10;;;;;;;3.38;1.00;;;21.60;99.90;;;;;;5033614;28;20092;-80
2023/08/02 11:19:37;;;;;;;0.80;0.50;;;21.50;99.90;;;;;;5033305;28;20040;-79
2023/08/02 11:22:02;;;;;;;0.63;0.40;;;21.40;99.90;;;;;;5031969;28;20040;-80
2023/08/02 11:24:40;;;;;;;2.03;0.40;;;21.30;99.90;;;;;;5032012;28;20391;-81
2023/08/02 11:27:06;;;;;;;1.42;0.50;;;21.30;99.90;;;;;;5033575;28;20140;-81
2023/08/02 11:29:31;;;;;;;1.00;0.43;;;21.20;99.90;;;;;;5031356;28;20121;-80
2023/08/02 11:32:02;;;;;;;0.45;0.28;;;21.10;99.90;;;;;;5032724;28;20065;-81
2023/08/02 11:34:29;;;;;;;4.05;0.40;;;21.10;99.90;;;;;;5032880;28;20542;-80
2023/08/02 11:36:55;;;;;;;0.63;0.40;;;21.00;99.90;;;;;;5033272;28;20121;-81
2023/08/02 11:39:21;;;;;;;0.82;0.20;;;20.90;99.90;;;;;;5015204;28;20042;-81
2023/08/02 11:42:03;;;;;;;0.57;0.40;;;20.90;99.90;;;;;;5032400;28;20030;-80
2023/08/02 11:44:29;;;;;;;1.08;0.52;;;20.80;99.90;;;;;;5032959;28;20041;-80
2023/08/02 11:47:05;;;;;;;1.00;0.40;;;20.70;99.90;;;;;;5033049;28;20402;-79
2023/08/02 11:53:38;;;;;;;0.90;0.70;;;20.70;99.90;;;;;;5032861;28;20125;-79
2023/08/02 11:56:04;;;;;;;0.70;0.55;;;20.60;99.90;;;;;;5030697;28;20042;-80
2023/08/02 12:01:52;;;;;;;2.75;0.60;;;20.50;99.90;;;;;;5032234;28;20068;-80
2023/08/02 12:04:18;;;;;;;1.00;0.63;;;20.60;99.90;;;;;;5032628;28;20034;-80
2023/08/02 12:06:47;;;;;;;1.52;0.80;;;20.60;99.90;;;;;;5031182;28;20033;-80
2023/08/02 12:09:14;;;;;;;3.50;1.27;;;20.70;99.90;;;;;;5034198;28;20061;-80
2023/08/02 12:11:40;;;;;;;1.05;0.80;;;21.00;99.90;;;;;;5034825;28;20033;-80
2023/08/02 12:14:06;;;;;;;1.27;0.98;;;21.20;99.90;;;;;;5036293;28;20426;-80
2023/08/02 12:16:42;;;;;;;1.42;1.08;;;21.30;99.90;;;;;;5036112;28;20025;-80
2023/08/02 12:19:12;;;;;;;1.38;0.93;;;21.20;99.90;;;;;;5036218;28;20040;-80
2023/08/02 12:21:38;;;;;;;1.10;0.60;;;21.20;99.90;;;;;;5034758;28;20029;-81
2023/08/02 12:24:15;;;;;;;1.42;0.45;;;21.20;99.90;;;;;;5036463;28;20026;-81
2023/08/02 12:26:41;;;;;;;0.73;0.40;;;21.20;99.90;;;;;;5035695;28;20149;-80
2023/08/02 12:29:06;;;;;;;0.60;0.22;;;21.10;99.90;;;;;;5035905;28;20048;-82
2023/08/02 12:31:45;;;;;;;2.28;0.40;;;21.10;99.90;;;;;;5034981;28;20038;-81
2023/08/02 12:34:11;;;;;;;0.65;0.20;;;21.10;99.90;;;;;;5036173;28;20111;-82
2023/08/02 12:36:37;;;;;;;0.50;0.20;;;21.20;99.90;;;;;;5037142;28;20155;-82
2023/08/02 12:39:04;;;;;;;0.95;0.30;;;21.40;99.90;;;;;;5038501;28;20571;-82
2023/08/02 12:41:30;;;;;;;0.75;0.20;;;21.70;99.90;;;;;;5038392;28;20124;-81
2023/08/02 12:43:56;;;;;;;1.02;0.30;;;21.90;99.90;;;;;;5038622;28;20160;-82
2023/08/02 12:46:22;;;;;;;1.38;0.47;;;22.00;99.90;;;;;;5035006;28;20033;-82
2023/08/02 12:48:49;;;;;;;4.50;0.50;;;22.10;99.90;;;;;;5036866;28;20037;-83
2023/08/02 12:51:15;;;;;;;5.55;0.70;;;22.20;99.90;;;;;;5036103;28;20463;-82
2023/08/02 12:53:41;;;;;;;2.47;0.70;;;22.40;99.90;;;;;;5036602;28;20048;-81
2023/08/02 12:56:07;;;;;;;3.65;0.65;;;22.50;99.90;;;;;;5036796;28;20025;-82